sensor_id;sensor_type;location;lat;lon;timestamp;P1;durP1;ratioP1;P2;durP2;ratioP2
8161;SDS011;16778;48.154;15.094;2023-04-16T00:00:11;4.63;;;3.87;;
8161;SDS011;16778;48.154;15.094;2023-04-16T00:02:37;4.70;;;3.73;;
8161;SDS011;16778;48.154;15.094;2023-04-16T00:05:02;8.43;;;4.10;;
8161;SDS011;16778;48.154;15.094;2023-04-16T00:07:28;8.53;;;4.30;;
8161;SDS011;16778;48.154;15.094;2023-04-16T00:09:54;6.07;;;4.13;;
8161;SDS011;16778;48.154;15.094;2023-04-16T00:12:20;4.43;;;3.43;;
8161;SDS011;16778;48.154;15.094;2023-04-16T00:14:46;5.87;;;4.07;;
8161;SDS011;16778;48.154;15.094;2023-04-16T00:17:13;4.87;;;3.47;;
8161;SDS011;16778;48.154;15.094;2023-04-16T00:19:38;5.17;;;3.87;;
8161;SDS011;16778;48.154;15.094;2023-04-16T00:22:04;6.57;;;3.70;;
8161;SDS011;16778;48.154;15.094;2023-04-16T00:24:30;4.97;;;3.40;;
8161;SDS011;16778;48.154;15.094;2023-04-16T00:26:55;4.70;;;3.47;;
8161;SDS011;16778;48.154;15.094;2023-04-16T00:29:21;5.30;;;4.07;;
8161;SDS011;16778;48.154;15.094;2023-04-16T00:31:47;6.47;;;3.83;;
8161;SDS011;16778;48.154;15.094;2023-04-16T00:34:13;4.87;;;3.90;;
8161;SDS011;16778;48.154;15.094;2023-04-16T00:36:38;7.20;;;4.23;;
8161;SDS011;16778;48.154;15.094;2023-04-16T00:39:04;6.27;;;4.43;;
8161;SDS011;16778;48.154;15.094;2023-04-16T00:41:30;5.57;;;4.10;;
8161;SDS011;16778;48.154;15.094;2023-04-16T00:43:55;6.20;;;4.03;;
8161;SDS011;16778;48.154;15.094;2023-04-16T00:46:22;6.70;;;4.47;;
8161;SDS011;16778;48.154;15.094;2023-04-16T00:48:48;6.57;;;4.40;;
8161;SDS011;16778;48.154;15.094;2023-04-16T00:51:15;7.87;;;4.37;;
8161;SDS011;16778;48.154;15.094;2023-04-16T00:53:42;6.07;;;4.00;;
8161;SDS011;16778;48.154;15.094;2023-04-16T00:56:09;5.37;;;3.70;;
8161;SDS011;16778;48.154;15.094;2023-04-16T00:58:37;4.87;;;3.33;;
8161;SDS011;16778;48.154;15.094;2023-04-16T01:01:03;4.67;;;3.00;;
8161;SDS011;16778;48.154;15.094;2023-04-16T01:03:33;4.83;;;3.10;;
8161;SDS011;16778;48.154;15.094;2023-04-16T01:06:03;2.40;;;1.80;;
8161;SDS011;16778;48.154;15.094;2023-04-16T01:08:30;2.57;;;2.03;;
8161;SDS011;16778;48.154;15.094;2023-04-16T01:10:55;2.67;;;2.10;;
8161;SDS011;16778;48.154;15.094;2023-04-16T01:13:21;2.73;;;2.00;;
8161;SDS011;16778;48.154;15.094;2023-04-16T01:15:47;3.73;;;2.40;;
8161;SDS011;16778;48.154;15.094;2023-04-16T01:18:13;3.23;;;2.13;;
8161;SDS011;16778;48.154;15.094;2023-04-16T01:20:41;3.63;;;2.50;;
8161;SDS011;16778;48.154;15.094;2023-04-16T01:23:07;2.67;;;2.10;;
8161;SDS011;16778;48.154;15.094;2023-04-16T01:25:33;3.13;;;2.20;;
8161;SDS011;16778;48.154;15.094;2023-04-16T01:27:58;2.43;;;1.90;;
8161;SDS011;16778;48.154;15.094;2023-04-16T01:30:24;4.73;;;2.00;;
8161;SDS011;16778;48.154;15.094;2023-04-16T01:32:50;2.20;;;2.00;;
8161;SDS011;16778;48.154;15.094;2023-04-16T01:35:16;3.23;;;1.97;;
8161;SDS011;16778;48.154;15.094;2023-04-16T01:37:44;2.73;;;2.00;;
8161;SDS011;16778;48.154;15.094;2023-04-16T01:40:10;2.10;;;1.80;;
8161;SDS011;16778;48.154;15.094;2023-04-16T01:42:36;2.70;;;1.57;;
8161;SDS011;16778;48.154;15.094;2023-04-16T01:45:02;2.70;;;1.80;;
8161;SDS011;16778;48.154;15.094;2023-04-16T01:47:28;1.77;;;1.47;;
8161;SDS011;16778;48.154;15.094;2023-04-16T01:49:54;2.33;;;1.67;;
8161;SDS011;16778;48.154;15.094;2023-04-16T01:52:20;3.13;;;1.60;;
8161;SDS011;16778;48.154;15.094;2023-04-16T01:54:45;1.70;;;1.60;;
8161;SDS011;16778;48.154;15.094;2023-04-16T01:57:11;2.00;;;1.63;;
8161;SDS011;16778;48.154;15.094;2023-04-16T01:59:37;2.03;;;1.50;;
8161;SDS011;16778;48.154;15.094;2023-04-16T02:02:05;3.33;;;1.93;;
8161;SDS011;16778;48.154;15.094;2023-04-16T02:04:32;1.77;;;1.43;;
8161;SDS011;16778;48.154;15.094;2023-04-16T02:06:58;2.50;;;2.10;;
8161;SDS011;16778;48.154;15.094;2023-04-16T02:09:24;2.90;;;1.70;;
8161;SDS011;16778;48.154;15.094;2023-04-16T02:11:49;2.20;;;1.73;;
8161;SDS011;16778;48.154;15.094;2023-04-16T02:14:15;3.67;;;2.00;;
8161;SDS011;16778;48.154;15.094;2023-04-16T02:16:40;3.83;;;1.80;;
8161;SDS011;16778;48.154;15.094;2023-04-16T02:19:06;3.37;;;2.10;;
8161;SDS011;16778;48.154;15.094;2023-04-16T02:21:32;3.60;;;2.03;;
8161;SDS011;16778;48.154;15.094;2023-04-16T02:23:57;3.97;;;2.03;;
8161;SDS011;16778;48.154;15.094;2023-04-16T02:26:23;3.00;;;2.17;;
8161;SDS011;16778;48.154;15.094;2023-04-16T02:28:50;2.47;;;1.90;;
8161;SDS011;16778;48.154;15.094;2023-04-16T02:31:16;2.23;;;2.03;;
8161;SDS011;16778;48.154;15.094;2023-04-16T02:33:43;3.43;;;2.10;;
8161;SDS011;16778;48.154;15.094;2023-04-16T02:36:09;1.97;;;1.77;;
8161;SDS011;16778;48.154;15.094;2023-04-16T02:38:35;2.80;;;2.40;;
8161;SDS011;16778;48.154;15.094;2023-04-16T02:41:01;5.27;;;2.10;;
8161;SDS011;16778;48.154;15.094;2023-04-16T02:43:27;3.50;;;1.93;;
8161;SDS011;16778;48.154;15.094;2023-04-16T02:45:52;3.17;;;2.10;;
8161;SDS011;16778;48.154;15.094;2023-04-16T02:48:18;6.80;;;2.60;;
8161;SDS011;16778;48.154;15.094;2023-04-16T02:50:44;2.40;;;1.67;;
8161;SDS011;16778;48.154;15.094;2023-04-16T02:53:09;4.03;;;2.07;;
8161;SDS011;16778;48.154;15.094;2023-04-16T02:55:35;3.97;;;2.13;;
8161;SDS011;16778;48.154;15.094;2023-04-16T02:58:01;1.80;;;1.50;;
8161;SDS011;16778;48.154;15.094;2023-04-16T03:00:26;2.67;;;1.80;;
8161;SDS011;16778;48.154;15.094;2023-04-16T03:02:52;3.20;;;1.80;;
8161;SDS011;16778;48.154;15.094;2023-04-16T03:05:18;2.23;;;1.70;;
8161;SDS011;16778;48.154;15.094;2023-04-16T03:07:43;2.07;;;1.80;;
8161;SDS011;16778;48.154;15.094;2023-04-16T03:10:09;2.40;;;1.63;;
8161;SDS011;16778;48.154;15.094;2023-04-16T03:12:36;1.47;;;1.37;;
8161;SDS011;16778;48.154;15.094;2023-04-16T03:15:01;2.47;;;1.60;;
8161;SDS011;16778;48.154;15.094;2023-04-16T03:17:27;2.17;;;1.70;;
8161;SDS011;16778;48.154;15.094;2023-04-16T03:19:53;2.93;;;2.00;;
8161;SDS011;16778;48.154;15.094;2023-04-16T03:22:18;6.27;;;1.50;;
8161;SDS011;16778;48.154;15.094;2023-04-16T03:24:44;2.07;;;1.77;;
8161;SDS011;16778;48.154;15.094;2023-04-16T03:27:11;2.50;;;2.00;;
8161;SDS011;16778;48.154;15.094;2023-04-16T03:29:37;3.57;;;1.93;;
8161;SDS011;16778;48.154;15.094;2023-04-16T03:32:03;2.87;;;1.93;;
8161;SDS011;16778;48.154;15.094;2023-04-16T03:34:28;1.60;;;1.50;;
8161;SDS011;16778;48.154;15.094;2023-04-16T03:36:54;2.83;;;2.00;;
8161;SDS011;16778;48.154;15.094;2023-04-16T03:39:20;3.83;;;2.00;;
8161;SDS011;16778;48.154;15.094;2023-04-16T03:41:45;2.50;;;2.00;;
8161;SDS011;16778;48.154;15.094;2023-04-16T03:44:11;2.60;;;1.83;;
8161;SDS011;16778;48.154;15.094;2023-04-16T03:46:37;3.13;;;1.93;;
8161;SDS011;16778;48.154;15.094;2023-04-16T03:49:02;2.73;;;2.00;;
8161;SDS011;16778;48.154;15.094;2023-04-16T03:51:28;2.57;;;1.97;;
8161;SDS011;16778;48.154;15.094;2023-04-16T03:53:54;2.50;;;2.07;;
8161;SDS011;16778;48.154;15.094;2023-04-16T03:56:20;2.50;;;1.97;;
8161;SDS011;16778;48.154;15.094;2023-04-16T03:58:45;4.30;;;2.20;;
8161;SDS011;16778;48.154;15.094;2023-04-16T04:01:11;3.37;;;2.27;;
8161;SDS011;16778;48.154;15.094;2023-04-16T04:03:36;3.80;;;2.50;;
8161;SDS011;16778;48.154;15.094;2023-04-16T04:06:05;4.20;;;2.47;;
8161;SDS011;16778;48.154;15.094;2023-04-16T04:08:32;4.07;;;2.40;;
8161;SDS011;16778;48.154;15.094;2023-04-16T04:10:57;3.53;;;2.50;;
8161;SDS011;16778;48.154;15.094;2023-04-16T04:13:23;4.63;;;2.83;;
8161;SDS011;16778;48.154;15.094;2023-04-16T04:15:49;3.27;;;2.40;;
8161;SDS011;16778;48.154;15.094;2023-04-16T04:18:15;4.20;;;2.70;;
8161;SDS011;16778;48.154;15.094;2023-04-16T04:20:40;3.47;;;2.63;;
8161;SDS011;16778;48.154;15.094;2023-04-16T04:23:06;3.53;;;2.70;;
8161;SDS011;16778;48.154;15.094;2023-04-16T04:25:31;2.93;;;2.47;;
8161;SDS011;16778;48.154;15.094;2023-04-16T04:27:57;4.27;;;2.90;;
8161;SDS011;16778;48.154;15.094;2023-04-16T04:30:23;3.60;;;2.87;;
8161;SDS011;16778;48.154;15.094;2023-04-16T04:32:48;3.63;;;2.77;;
8161;SDS011;16778;48.154;15.094;2023-04-16T04:35:14;4.10;;;2.93;;
8161;SDS011;16778;48.154;15.094;2023-04-16T04:37:40;5.40;;;3.13;;
8161;SDS011;16778;48.154;15.094;2023-04-16T04:40:06;3.60;;;2.77;;
8161;SDS011;16778;48.154;15.094;2023-04-16T04:42:32;4.53;;;3.10;;
8161;SDS011;16778;48.154;15.094;2023-04-16T04:44:57;5.33;;;2.83;;
8161;SDS011;16778;48.154;15.094;2023-04-16T04:47:23;3.53;;;2.90;;
8161;SDS011;16778;48.154;15.094;2023-04-16T04:49:49;2.80;;;2.47;;
8161;SDS011;16778;48.154;15.094;2023-04-16T04:52:14;2.97;;;2.57;;
8161;SDS011;16778;48.154;15.094;2023-04-16T04:54:40;2.70;;;2.20;;
8161;SDS011;16778;48.154;15.094;2023-04-16T04:57:06;3.43;;;2.80;;
8161;SDS011;16778;48.154;15.094;2023-04-16T04:59:32;4.27;;;2.47;;
8161;SDS011;16778;48.154;15.094;2023-04-16T05:01:58;3.47;;;2.50;;
8161;SDS011;16778;48.154;15.094;2023-04-16T05:04:24;3.23;;;2.23;;
8161;SDS011;16778;48.154;15.094;2023-04-16T05:06:49;3.47;;;2.10;;
8161;SDS011;16778;48.154;15.094;2023-04-16T05:09:15;6.37;;;2.20;;
8161;SDS011;16778;48.154;15.094;2023-04-16T05:11:41;2.70;;;2.10;;
8161;SDS011;16778;48.154;15.094;2023-04-16T05:14:07;3.00;;;2.17;;
8161;SDS011;16778;48.154;15.094;2023-04-16T05:16:35;5.53;;;2.37;;
8161;SDS011;16778;48.154;15.094;2023-04-16T05:19:01;2.83;;;1.87;;
8161;SDS011;16778;48.154;15.094;2023-04-16T05:21:27;2.10;;;1.90;;
8161;SDS011;16778;48.154;15.094;2023-04-16T05:23:53;2.93;;;1.73;;
8161;SDS011;16778;48.154;15.094;2023-04-16T05:26:19;4.60;;;2.03;;
8161;SDS011;16778;48.154;15.094;2023-04-16T05:28:44;5.60;;;1.90;;
8161;SDS011;16778;48.154;15.094;2023-04-16T05:31:10;2.73;;;2.20;;
8161;SDS011;16778;48.154;15.094;2023-04-16T05:33:36;3.57;;;2.17;;
8161;SDS011;16778;48.154;15.094;2023-04-16T05:36:01;4.50;;;3.20;;
8161;SDS011;16778;48.154;15.094;2023-04-16T05:38:27;3.30;;;2.20;;
8161;SDS011;16778;48.154;15.094;2023-04-16T05:40:54;3.13;;;2.13;;
8161;SDS011;16778;48.154;15.094;2023-04-16T05:43:20;3.87;;;2.57;;
8161;SDS011;16778;48.154;15.094;2023-04-16T05:45:45;4.30;;;2.83;;
8161;SDS011;16778;48.154;15.094;2023-04-16T05:48:11;2.80;;;2.30;;
8161;SDS011;16778;48.154;15.094;2023-04-16T05:50:37;3.70;;;2.30;;
8161;SDS011;16778;48.154;15.094;2023-04-16T05:53:04;3.37;;;2.43;;
8161;SDS011;16778;48.154;15.094;2023-04-16T05:55:31;2.83;;;2.10;;
8161;SDS011;16778;48.154;15.094;2023-04-16T05:57:56;6.50;;;3.37;;
8161;SDS011;16778;48.154;15.094;2023-04-16T06:00:22;2.67;;;2.00;;
8161;SDS011;16778;48.154;15.094;2023-04-16T06:02:48;4.13;;;2.47;;
8161;SDS011;16778;48.154;15.094;2023-04-16T06:05:14;4.13;;;3.00;;
8161;SDS011;16778;48.154;15.094;2023-04-16T06:07:40;3.20;;;2.33;;
8161;SDS011;16778;48.154;15.094;2023-04-16T06:10:05;3.93;;;2.67;;
8161;SDS011;16778;48.154;15.094;2023-04-16T06:12:31;4.17;;;3.00;;
8161;SDS011;16778;48.154;15.094;2023-04-16T06:14:57;4.60;;;2.80;;
8161;SDS011;16778;48.154;15.094;2023-04-16T06:17:23;3.83;;;3.10;;
8161;SDS011;16778;48.154;15.094;2023-04-16T06:19:49;4.37;;;3.23;;
8161;SDS011;16778;48.154;15.094;2023-04-16T06:22:15;3.73;;;2.37;;
8161;SDS011;16778;48.154;15.094;2023-04-16T06:24:40;3.53;;;2.90;;
8161;SDS011;16778;48.154;15.094;2023-04-16T06:27:06;6.70;;;3.70;;
8161;SDS011;16778;48.154;15.094;2023-04-16T06:29:32;5.27;;;3.27;;
8161;SDS011;16778;48.154;15.094;2023-04-16T06:31:57;3.93;;;3.20;;
8161;SDS011;16778;48.154;15.094;2023-04-16T06:34:23;5.90;;;3.80;;
8161;SDS011;16778;48.154;15.094;2023-04-16T06:36:48;4.60;;;3.50;;
8161;SDS011;16778;48.154;15.094;2023-04-16T06:39:14;5.70;;;3.97;;
8161;SDS011;16778;48.154;15.094;2023-04-16T06:41:40;5.87;;;3.67;;
8161;SDS011;16778;48.154;15.094;2023-04-16T06:44:06;5.67;;;4.17;;
8161;SDS011;16778;48.154;15.094;2023-04-16T06:46:31;5.87;;;4.07;;
8161;SDS011;16778;48.154;15.094;2023-04-16T06:48:57;7.20;;;4.50;;
8161;SDS011;16778;48.154;15.094;2023-04-16T06:51:23;5.93;;;3.50;;
8161;SDS011;16778;48.154;15.094;2023-04-16T06:53:48;6.43;;;3.67;;
8161;SDS011;16778;48.154;15.094;2023-04-16T06:56:14;5.93;;;3.87;;
8161;SDS011;16778;48.154;15.094;2023-04-16T06:58:40;6.03;;;3.90;;
8161;SDS011;16778;48.154;15.094;2023-04-16T07:01:05;5.00;;;3.30;;
8161;SDS011;16778;48.154;15.094;2023-04-16T07:03:31;5.47;;;3.77;;
8161;SDS011;16778;48.154;15.094;2023-04-16T07:05:56;4.23;;;3.30;;
8161;SDS011;16778;48.154;15.094;2023-04-16T07:08:22;4.70;;;3.63;;
8161;SDS011;16778;48.154;15.094;2023-04-16T07:10:48;4.83;;;3.33;;
8161;SDS011;16778;48.154;15.094;2023-04-16T07:13:14;5.37;;;3.13;;
8161;SDS011;16778;48.154;15.094;2023-04-16T07:15:42;4.37;;;2.87;;
8161;SDS011;16778;48.154;15.094;2023-04-16T07:18:08;4.70;;;3.23;;
8161;SDS011;16778;48.154;15.094;2023-04-16T07:20:33;3.80;;;2.70;;
8161;SDS011;16778;48.154;15.094;2023-04-16T07:23:00;5.20;;;3.07;;
8161;SDS011;16778;48.154;15.094;2023-04-16T07:25:26;4.20;;;2.87;;
8161;SDS011;16778;48.154;15.094;2023-04-16T07:27:51;5.47;;;3.07;;
8161;SDS011;16778;48.154;15.094;2023-04-16T07:30:17;4.17;;;3.20;;
8161;SDS011;16778;48.154;15.094;2023-04-16T07:32:42;8.63;;;3.23;;
8161;SDS011;16778;48.154;15.094;2023-04-16T07:35:08;4.30;;;3.27;;
8161;SDS011;16778;48.154;15.094;2023-04-16T07:37:34;4.37;;;3.17;;
8161;SDS011;16778;48.154;15.094;2023-04-16T07:40:00;4.30;;;2.80;;
8161;SDS011;16778;48.154;15.094;2023-04-16T07:42:26;5.17;;;2.77;;
8161;SDS011;16778;48.154;15.094;2023-04-16T07:44:52;4.37;;;2.80;;
8161;SDS011;16778;48.154;15.094;2023-04-16T07:47:18;3.53;;;2.50;;
8161;SDS011;16778;48.154;15.094;2023-04-16T07:49:45;4.03;;;2.47;;
8161;SDS011;16778;48.154;15.094;2023-04-16T07:52:10;4.53;;;2.63;;
8161;SDS011;16778;48.154;15.094;2023-04-16T07:54:36;3.67;;;2.73;;
8161;SDS011;16778;48.154;15.094;2023-04-16T07:57:02;3.37;;;2.27;;
8161;SDS011;16778;48.154;15.094;2023-04-16T07:59:27;3.77;;;2.50;;
8161;SDS011;16778;48.154;15.094;2023-04-16T08:01:53;5.70;;;2.73;;
8161;SDS011;16778;48.154;15.094;2023-04-16T08:04:19;4.03;;;2.50;;
8161;SDS011;16778;48.154;15.094;2023-04-16T08:06:48;4.50;;;2.50;;
8161;SDS011;16778;48.154;15.094;2023-04-16T08:09:14;4.90;;;2.83;;
8161;SDS011;16778;48.154;15.094;2023-04-16T08:11:40;6.00;;;2.70;;
8161;SDS011;16778;48.154;15.094;2023-04-16T08:14:06;4.27;;;2.67;;
8161;SDS011;16778;48.154;15.094;2023-04-16T08:16:32;3.20;;;2.33;;
8161;SDS011;16778;48.154;15.094;2023-04-16T08:18:57;3.67;;;2.40;;
8161;SDS011;16778;48.154;15.094;2023-04-16T08:21:25;2.40;;;2.00;;
8161;SDS011;16778;48.154;15.094;2023-04-16T08:23:52;5.07;;;1.90;;
8161;SDS011;16778;48.154;15.094;2023-04-16T08:26:17;2.47;;;2.07;;
8161;SDS011;16778;48.154;15.094;2023-04-16T08:28:43;2.53;;;1.83;;
8161;SDS011;16778;48.154;15.094;2023-04-16T08:31:09;7.63;;;2.47;;
8161;SDS011;16778;48.154;15.094;2023-04-16T08:33:35;2.40;;;2.00;;
8161;SDS011;16778;48.154;15.094;2023-04-16T08:36:00;6.33;;;2.07;;
8161;SDS011;16778;48.154;15.094;2023-04-16T08:38:26;3.27;;;2.30;;
8161;SDS011;16778;48.154;15.094;2023-04-16T08:40:51;2.83;;;2.33;;
8161;SDS011;16778;48.154;15.094;2023-04-16T08:43:18;2.97;;;2.27;;
8161;SDS011;16778;48.154;15.094;2023-04-16T08:45:46;3.40;;;2.10;;
8161;SDS011;16778;48.154;15.094;2023-04-16T08:48:12;2.33;;;2.10;;
8161;SDS011;16778;48.154;15.094;2023-04-16T08:50:38;3.10;;;2.10;;
8161;SDS011;16778;48.154;15.094;2023-04-16T08:53:05;4.03;;;2.30;;
8161;SDS011;16778;48.154;15.094;2023-04-16T08:55:34;2.50;;;1.60;;
8161;SDS011;16778;48.154;15.094;2023-04-16T08:58:03;4.07;;;2.03;;
8161;SDS011;16778;48.154;15.094;2023-04-16T09:00:37;2.47;;;2.00;;
8161;SDS011;16778;48.154;15.094;2023-04-16T09:03:05;3.20;;;2.33;;
8161;SDS011;16778;48.154;15.094;2023-04-16T09:05:31;3.37;;;2.10;;
8161;SDS011;16778;48.154;15.094;2023-04-16T09:07:57;3.67;;;2.13;;
8161;SDS011;16778;48.154;15.094;2023-04-16T09:10:24;2.67;;;1.73;;
8161;SDS011;16778;48.154;15.094;2023-04-16T09:12:51;2.63;;;2.20;;
8161;SDS011;16778;48.154;15.094;2023-04-16T09:15:18;6.73;;;2.63;;
8161;SDS011;16778;48.154;15.094;2023-04-16T09:17:45;3.03;;;2.07;;
8161;SDS011;16778;48.154;15.094;2023-04-16T09:20:11;4.60;;;2.50;;
8161;SDS011;16778;48.154;15.094;2023-04-16T09:22:37;4.40;;;2.80;;
8161;SDS011;16778;48.154;15.094;2023-04-16T09:25:04;3.17;;;2.47;;
8161;SDS011;16778;48.154;15.094;2023-04-16T09:27:31;4.63;;;3.27;;
8161;SDS011;16778;48.154;15.094;2023-04-16T09:29:56;4.93;;;3.03;;
8161;SDS011;16778;48.154;15.094;2023-04-16T09:32:26;5.23;;;3.80;;
8161;SDS011;16778;48.154;15.094;2023-04-16T09:34:55;3.03;;;2.70;;
8161;SDS011;16778;48.154;15.094;2023-04-16T09:37:21;4.17;;;2.93;;
8161;SDS011;16778;48.154;15.094;2023-04-16T09:39:57;4.07;;;2.87;;
8161;SDS011;16778;48.154;15.094;2023-04-16T09:42:25;2.87;;;2.47;;
8161;SDS011;16778;48.154;15.094;2023-04-16T09:44:55;7.07;;;2.20;;
8161;SDS011;16778;48.154;15.094;2023-04-16T09:47:22;1.70;;;1.60;;
8161;SDS011;16778;48.154;15.094;2023-04-16T09:49:49;1.93;;;1.60;;
8161;SDS011;16778;48.154;15.094;2023-04-16T09:52:16;3.90;;;2.63;;
8161;SDS011;16778;48.154;15.094;2023-04-16T09:54:46;5.10;;;2.53;;
8161;SDS011;16778;48.154;15.094;2023-04-16T09:57:22;2.10;;;1.63;;
8161;SDS011;16778;48.154;15.094;2023-04-16T09:59:52;2.90;;;2.03;;
8161;SDS011;16778;48.154;15.094;2023-04-16T10:02:18;2.57;;;1.87;;
8161;SDS011;16778;48.154;15.094;2023-04-16T10:04:48;2.53;;;1.90;;
8161;SDS011;16778;48.154;15.094;2023-04-16T10:07:14;1.83;;;1.63;;
8161;SDS011;16778;48.154;15.094;2023-04-16T10:09:40;2.43;;;2.10;;
8161;SDS011;16778;48.154;15.094;2023-04-16T10:12:06;2.00;;;1.80;;
8161;SDS011;16778;48.154;15.094;2023-04-16T10:14:32;1.87;;;1.60;;
8161;SDS011;16778;48.154;15.094;2023-04-16T10:16:58;2.63;;;1.70;;
8161;SDS011;16778;48.154;15.094;2023-04-16T10:19:24;2.40;;;2.10;;
8161;SDS011;16778;48.154;15.094;2023-04-16T10:21:51;2.47;;;2.00;;
8161;SDS011;16778;48.154;15.094;2023-04-16T10:24:17;3.33;;;2.50;;
8161;SDS011;16778;48.154;15.094;2023-04-16T10:26:43;2.83;;;2.20;;
8161;SDS011;16778;48.154;15.094;2023-04-16T10:29:12;4.17;;;2.87;;
8161;SDS011;16778;48.154;15.094;2023-04-16T10:31:38;4.67;;;3.10;;
8161;SDS011;16778;48.154;15.094;2023-04-16T10:34:06;5.30;;;3.40;;
8161;SDS011;16778;48.154;15.094;2023-04-16T10:36:35;4.33;;;3.30;;
8161;SDS011;16778;48.154;15.094;2023-04-16T10:39:01;4.10;;;2.80;;
8161;SDS011;16778;48.154;15.094;2023-04-16T10:41:27;6.37;;;3.63;;
8161;SDS011;16778;48.154;15.094;2023-04-16T10:44:02;4.33;;;2.80;;
8161;SDS011;16778;48.154;15.094;2023-04-16T10:46:42;3.00;;;2.70;;
8161;SDS011;16778;48.154;15.094;2023-04-16T10:49:18;8.37;;;3.60;;
8161;SDS011;16778;48.154;15.094;2023-04-16T10:51:57;4.57;;;3.07;;
8161;SDS011;16778;48.154;15.094;2023-04-16T10:56:51;5.17;;;3.60;;
8161;SDS011;16778;48.154;15.094;2023-04-16T10:59:18;7.77;;;3.07;;
8161;SDS011;16778;48.154;15.094;2023-04-16T11:01:46;6.40;;;3.13;;
8161;SDS011;16778;48.154;15.094;2023-04-16T11:12:15;3.07;;;2.53;;
8161;SDS011;16778;48.154;15.094;2023-04-16T11:14:46;4.93;;;3.30;;
8161;SDS011;16778;48.154;15.094;2023-04-16T11:17:16;3.57;;;2.50;;
8161;SDS011;16778;48.154;15.094;2023-04-16T11:19:43;3.17;;;2.57;;
8161;SDS011;16778;48.154;15.094;2023-04-16T11:22:10;3.27;;;2.57;;
8161;SDS011;16778;48.154;15.094;2023-04-16T11:24:40;2.97;;;2.37;;
8161;SDS011;16778;48.154;15.094;2023-04-16T11:27:11;2.97;;;2.17;;
8161;SDS011;16778;48.154;15.094;2023-04-16T11:29:37;3.97;;;2.90;;
8161;SDS011;16778;48.154;15.094;2023-04-16T11:32:03;4.13;;;2.60;;
8161;SDS011;16778;48.154;15.094;2023-04-16T11:34:29;4.03;;;3.13;;
8161;SDS011;16778;48.154;15.094;2023-04-16T11:36:54;3.30;;;2.70;;
8161;SDS011;16778;48.154;15.094;2023-04-16T11:39:21;3.77;;;2.90;;
8161;SDS011;16778;48.154;15.094;2023-04-16T11:41:47;4.87;;;2.70;;
8161;SDS011;16778;48.154;15.094;2023-04-16T11:46:46;6.83;;;3.40;;
8161;SDS011;16778;48.154;15.094;2023-04-16T11:49:13;4.13;;;2.80;;
8161;SDS011;16778;48.154;15.094;2023-04-16T11:51:43;4.20;;;3.40;;
8161;SDS011;16778;48.154;15.094;2023-04-16T11:54:17;5.47;;;3.27;;
8161;SDS011;16778;48.154;15.094;2023-04-16T11:56:50;3.80;;;3.40;;
8161;SDS011;16778;48.154;15.094;2023-04-16T11:59:20;5.07;;;3.93;;
8161;SDS011;16778;48.154;15.094;2023-04-16T12:01:51;4.03;;;3.47;;
8161;SDS011;16778;48.154;15.094;2023-04-16T12:04:20;3.70;;;3.27;;
8161;SDS011;16778;48.154;15.094;2023-04-16T12:09:35;3.57;;;3.27;;
8161;SDS011;16778;48.154;15.094;2023-04-16T12:12:02;4.57;;;3.37;;
8161;SDS011;16778;48.154;15.094;2023-04-16T12:14:28;4.10;;;3.03;;
8161;SDS011;16778;48.154;15.094;2023-04-16T12:16:55;4.00;;;3.47;;
8161;SDS011;16778;48.154;15.094;2023-04-16T12:19:27;6.33;;;3.53;;
8161;SDS011;16778;48.154;15.094;2023-04-16T12:21:52;4.43;;;3.53;;
8161;SDS011;16778;48.154;15.094;2023-04-16T12:24:19;4.83;;;3.03;;
8161;SDS011;16778;48.154;15.094;2023-04-16T12:26:45;3.03;;;2.60;;
8161;SDS011;16778;48.154;15.094;2023-04-16T12:29:22;4.60;;;3.50;;
8161;SDS011;16778;48.154;15.094;2023-04-16T12:31:54;4.03;;;3.10;;
8161;SDS011;16778;48.154;15.094;2023-04-16T12:34:20;5.57;;;3.73;;
8161;SDS011;16778;48.154;15.094;2023-04-16T12:36:46;5.10;;;3.10;;
8161;SDS011;16778;48.154;15.094;2023-04-16T12:39:14;4.70;;;3.07;;
8161;SDS011;16778;48.154;15.094;2023-04-16T12:41:41;4.10;;;3.23;;
8161;SDS011;16778;48.154;15.094;2023-04-16T12:44:08;4.23;;;3.60;;
8161;SDS011;16778;48.154;15.094;2023-04-16T12:46:38;5.30;;;3.37;;
8161;SDS011;16778;48.154;15.094;2023-04-16T12:49:07;4.67;;;3.40;;
8161;SDS011;16778;48.154;15.094;2023-04-16T12:51:34;3.93;;;3.23;;
8161;SDS011;16778;48.154;15.094;2023-04-16T12:54:01;5.53;;;3.43;;
8161;SDS011;16778;48.154;15.094;2023-04-16T12:56:27;5.13;;;3.90;;
8161;SDS011;16778;48.154;15.094;2023-04-16T12:58:53;6.00;;;4.03;;
8161;SDS011;16778;48.154;15.094;2023-04-16T13:01:19;6.40;;;4.10;;
8161;SDS011;16778;48.154;15.094;2023-04-16T13:03:45;5.13;;;3.43;;
8161;SDS011;16778;48.154;15.094;2023-04-16T13:06:11;6.13;;;3.60;;
8161;SDS011;16778;48.154;15.094;2023-04-16T13:08:38;6.97;;;3.77;;
8161;SDS011;16778;48.154;15.094;2023-04-16T13:11:04;5.80;;;4.03;;
8161;SDS011;16778;48.154;15.094;2023-04-16T13:13:30;4.90;;;3.60;;
8161;SDS011;16778;48.154;15.094;2023-04-16T13:15:56;5.57;;;4.10;;
8161;SDS011;16778;48.154;15.094;2023-04-16T13:18:21;8.33;;;4.40;;
8161;SDS011;16778;48.154;15.094;2023-04-16T13:20:47;5.43;;;4.30;;
8161;SDS011;16778;48.154;15.094;2023-04-16T13:23:13;6.13;;;4.17;;
8161;SDS011;16778;48.154;15.094;2023-04-16T13:25:39;6.33;;;4.27;;
8161;SDS011;16778;48.154;15.094;2023-04-16T13:28:04;5.47;;;4.23;;
8161;SDS011;16778;48.154;15.094;2023-04-16T13:30:30;7.23;;;3.83;;
8161;SDS011;16778;48.154;15.094;2023-04-16T13:32:57;5.10;;;3.40;;
8161;SDS011;16778;48.154;15.094;2023-04-16T13:35:23;4.33;;;2.73;;
8161;SDS011;16778;48.154;15.094;2023-04-16T13:37:49;3.80;;;2.97;;
8161;SDS011;16778;48.154;15.094;2023-04-16T13:40:14;4.80;;;2.93;;
8161;SDS011;16778;48.154;15.094;2023-04-16T13:42:40;5.27;;;2.47;;
8161;SDS011;16778;48.154;15.094;2023-04-16T13:45:06;3.57;;;2.67;;
8161;SDS011;16778;48.154;15.094;2023-04-16T13:47:33;3.67;;;2.77;;
8161;SDS011;16778;48.154;15.094;2023-04-16T13:49:59;2.53;;;2.10;;
8161;SDS011;16778;48.154;15.094;2023-04-16T13:52:25;9.43;;;3.43;;
8161;SDS011;16778;48.154;15.094;2023-04-16T13:54:50;3.83;;;2.77;;
8161;SDS011;16778;48.154;15.094;2023-04-16T13:57:16;3.07;;;2.77;;
8161;SDS011;16778;48.154;15.094;2023-04-16T13:59:42;4.37;;;2.83;;
8161;SDS011;16778;48.154;15.094;2023-04-16T14:02:08;3.27;;;2.60;;
8161;SDS011;16778;48.154;15.094;2023-04-16T14:04:35;4.63;;;3.03;;
8161;SDS011;16778;48.154;15.094;2023-04-16T14:07:00;4.20;;;2.80;;
8161;SDS011;16778;48.154;15.094;2023-04-16T14:09:26;3.33;;;2.50;;
8161;SDS011;16778;48.154;15.094;2023-04-16T14:11:52;4.63;;;2.97;;
8161;SDS011;16778;48.154;15.094;2023-04-16T14:14:17;3.90;;;3.23;;
8161;SDS011;16778;48.154;15.094;2023-04-16T14:16:43;4.63;;;3.10;;
8161;SDS011;16778;48.154;15.094;2023-04-16T14:19:09;4.10;;;3.30;;
8161;SDS011;16778;48.154;15.094;2023-04-16T14:21:35;4.80;;;3.67;;
8161;SDS011;16778;48.154;15.094;2023-04-16T14:24:01;4.80;;;3.27;;
8161;SDS011;16778;48.154;15.094;2023-04-16T14:26:27;3.27;;;2.93;;
8161;SDS011;16778;48.154;15.094;2023-04-16T14:28:52;3.77;;;2.57;;
8161;SDS011;16778;48.154;15.094;2023-04-16T14:31:18;2.70;;;2.47;;
8161;SDS011;16778;48.154;15.094;2023-04-16T14:33:44;3.70;;;2.90;;
8161;SDS011;16778;48.154;15.094;2023-04-16T14:36:10;3.43;;;2.53;;
8161;SDS011;16778;48.154;15.094;2023-04-16T14:38:36;4.37;;;2.40;;
8161;SDS011;16778;48.154;15.094;2023-04-16T14:41:02;3.53;;;2.93;;
8161;SDS011;16778;48.154;15.094;2023-04-16T14:43:27;2.77;;;2.20;;
8161;SDS011;16778;48.154;15.094;2023-04-16T14:45:53;4.47;;;2.47;;
8161;SDS011;16778;48.154;15.094;2023-04-16T14:48:22;3.43;;;2.10;;
8161;SDS011;16778;48.154;15.094;2023-04-16T14:50:48;3.10;;;2.30;;
8161;SDS011;16778;48.154;15.094;2023-04-16T14:53:13;3.83;;;2.60;;
8161;SDS011;16778;48.154;15.094;2023-04-16T14:55:39;2.63;;;2.00;;
8161;SDS011;16778;48.154;15.094;2023-04-16T14:58:05;2.97;;;2.43;;